Portada
METAR-TAF:

METAR-TAF

Aeroports :

N'Djamena, Txad

latitud: 12-08N, longitud: 015-02E, altitud: 295 m

Observació

L'informe es va fer fa 1 hora i 17 minuts, a les 19:00 UTC
Vent 7 kt del Nord
Temperatura 24°C
Humitat 22%
Pressió 1015 hPa
Visibilitat: 8000 m

METAR: FTTJ 101900Z 36007KT 8000 NSC 24/01 Q1015 NOSIG

Hora: 21:17 (20:17 UTC)

Pronòstic

L'informe es va fer fa 3 hores i 17 minuts, a les 17:00 UTC
Pronòstic vàlid del 10 a les 18 UTC al 11 a les 24 UTC
Vent 8 kt del Nord
Visibilitat: 7000 m
Temporalment
l' 10 a les 20 UTC al 11 a les 04 UTC
Visibilitat: 3500 m
Pols estès

TAF: FTTJ 101700Z 1018/1124 35008KT 7000 NSC TEMPO 1020/1104 3500 DU

Observacions i pronòstics meteorològics de més de 4000 aeroports (METAR i TAF).

Les estacions disponibles són els punts grocs i vermells al mapa.

Posi el ratolí al punt desitjat per veure el nom de l'estació.

Feu clic per veure les observacions i els pronòstics meteorològics.

Per canviar el mapa: feu clic els botons verds amb una creu de color negre per apropar; al botó verd amb un guió per allunyar la imatge; o en les fletxes verdes per a mapes adjacents.


METAR-TAF: